Time;durP1;ratioP1;P1;durP2;ratioP2;P2;SDS_P1;SDS_P2;PMS_P1;PMS_P2;Temp;Humidity;BMP_temperature;BMP_pressure;BME280_temperature;BME280_humidity;BME280_pressure;Samples;Min_cycle;Max_cycle;Signal;HPM_P1;HPM_P2
2022/07/07 00:01:38;;;;;;;5.60;1.67;;;20.30;35.60;;;;;;5054585;28;21042;-48
2022/07/07 00:04:04;;;;;;;2.17;1.33;;;20.30;35.80;;;;;;5054416;28;20247;-49
2022/07/07 00:06:30;;;;;;;2.50;1.35;;;20.20;35.60;;;;;;5054195;28;20173;-49
2022/07/07 00:08:56;;;;;;;1.92;1.23;;;20.20;35.20;;;;;;5054422;28;20637;-48
2022/07/07 00:11:23;;;;;;;2.20;1.30;;;20.20;35.20;;;;;;5054226;28;20588;-49
2022/07/07 00:13:49;;;;;;;2.53;1.60;;;20.10;35.50;;;;;;5054126;28;20189;-48
2022/07/07 00:16:15;;;;;;;1.93;1.30;;;20.10;35.80;;;;;;5054044;28;20529;-49
2022/07/07 00:18:41;;;;;;;2.57;1.50;;;20.10;36.10;;;;;;5054217;28;20177;-48
2022/07/07 00:21:06;;;;;;;2.30;1.40;;;20.10;36.10;;;;;;5053778;28;20247;-48
2022/07/07 00:23:32;;;;;;;2.30;1.50;;;20.00;35.90;;;;;;5054051;28;20913;-48
2022/07/07 00:25:58;;;;;;;2.30;0.93;;;20.00;36.00;;;;;;5053885;28;20177;-48
2022/07/07 00:28:24;;;;;;;8.43;1.60;;;20.10;36.40;;;;;;5079116;22;20493;-48
2022/07/07 00:30:49;;;;;;;3.13;1.40;;;20.00;36.50;;;;;;5088219;28;20504;-48
2022/07/07 00:33:16;;;;;;;2.00;1.27;;;20.00;36.60;;;;;;5094109;28;20199;-48
2022/07/07 00:35:42;;;;;;;2.45;1.42;;;20.00;36.70;;;;;;5093930;28;20171;-48
2022/07/07 00:38:07;;;;;;;2.50;1.60;;;19.90;36.70;;;;;;5093977;28;20236;-47
2022/07/07 00:40:34;;;;;;;3.50;1.27;;;19.90;36.60;;;;;;5094165;28;20176;-46
2022/07/07 00:43:00;;;;;;;3.95;1.50;;;19.80;36.90;;;;;;5094243;28;20180;-49
2022/07/07 00:45:26;;;;;;;3.10;1.67;;;19.80;36.70;;;;;;5093912;28;20172;-48
2022/07/07 00:47:52;;;;;;;2.40;1.40;;;19.80;36.50;;;;;;5093680;28;20422;-47
2022/07/07 00:50:19;;;;;;;3.28;1.10;;;19.70;36.80;;;;;;5093913;28;20406;-46
2022/07/07 00:52:45;;;;;;;4.03;1.60;;;19.70;36.90;;;;;;5093618;28;20249;-49
2022/07/07 00:55:11;;;;;;;2.60;1.55;;;19.60;36.80;;;;;;5093724;28;20163;-47
2022/07/07 00:57:37;;;;;;;3.00;1.40;;;19.60;37.00;;;;;;5093460;28;20225;-46
2022/07/07 01:00:07;;;;;;;2.70;1.50;;;19.60;37.20;;;;;;5093693;28;20164;-48
2022/07/07 01:02:33;;;;;;;2.72;1.10;;;19.50;37.10;;;;;;5093608;28;20213;-47
2022/07/07 01:05:00;;;;;;;3.45;1.45;;;19.50;37.00;;;;;;5093853;28;20180;-48
2022/07/07 01:07:27;;;;;;;2.90;1.75;;;19.50;37.20;;;;;;5093264;28;20192;-47
2022/07/07 01:09:56;;;;;;;1.90;1.30;;;19.40;37.10;;;;;;5093656;28;20252;-49
2022/07/07 01:12:22;;;;;;;4.25;1.80;;;19.40;37.30;;;;;;5093561;28;20199;-46
2022/07/07 01:14:48;;;;;;;2.08;1.02;;;19.40;37.10;;;;;;5093637;28;20534;-48
2022/07/07 01:17:14;;;;;;;1.90;1.30;;;19.40;37.40;;;;;;5093142;28;20255;-48
2022/07/07 01:19:40;;;;;;;3.23;2.03;;;19.30;37.50;;;;;;5093151;28;20413;-47
2022/07/07 01:22:12;;;;;;;1.93;1.17;;;19.30;37.50;;;;;;5093237;28;20172;-46
2022/07/07 01:24:38;;;;;;;2.13;1.55;;;19.20;37.60;;;;;;5093256;28;20156;-46
2022/07/07 01:27:14;;;;;;;2.40;1.47;;;19.20;37.70;;;;;;5092901;28;20745;-45
2022/07/07 01:30:00;;;;;;;2.65;1.80;;;19.20;37.70;;;;;;5092907;28;20455;-47
2022/07/07 01:32:27;;;;;;;1.98;0.98;;;19.20;37.80;;;;;;5091979;28;20232;-47
2022/07/07 01:34:54;;;;;;;2.78;1.75;;;19.10;37.80;;;;;;5092976;28;20573;-47
2022/07/07 01:37:20;;;;;;;3.17;1.98;;;19.10;37.80;;;;;;5092779;28;20176;-47
2022/07/07 01:39:47;;;;;;;3.05;1.63;;;19.10;38.30;;;;;;5092804;28;20203;-48
2022/07/07 01:42:13;;;;;;;2.20;1.65;;;19.00;38.30;;;;;;5092826;28;20708;-48
2022/07/07 01:44:41;;;;;;;2.88;1.83;;;19.00;38.30;;;;;;5093023;28;20254;-48
2022/07/07 01:47:08;;;;;;;2.17;1.45;;;18.90;38.50;;;;;;5092516;28;20577;-47
2022/07/07 01:49:34;;;;;;;2.20;1.40;;;18.90;38.50;;;;;;5092958;28;20219;-46
2022/07/07 01:52:02;;;;;;;3.08;1.80;;;18.90;38.70;;;;;;5092673;28;20191;-48
2022/07/07 01:54:28;;;;;;;3.45;1.65;;;18.90;38.90;;;;;;5092632;28;20224;-47
2022/07/07 01:56:55;;;;;;;2.20;1.58;;;18.80;39.40;;;;;;5092394;28;20180;-47
2022/07/07 01:59:20;;;;;;;2.97;1.60;;;18.80;38.80;;;;;;5092759;28;20257;-47
2022/07/07 02:01:46;;;;;;;3.00;1.40;;;18.80;38.90;;;;;;5092633;28;20639;-46
2022/07/07 02:04:12;;;;;;;1.93;1.50;;;18.80;38.90;;;;;;5092751;28;20178;-47
2022/07/07 02:06:38;;;;;;;2.60;1.50;;;18.80;38.80;;;;;;5092426;28;20172;-47
2022/07/07 02:11:49;;;;;;;3.75;1.63;;;19.00;38.90;;;;;;5092537;28;20742;-47
2022/07/07 02:14:19;;;;;;;1.97;1.30;;;19.00;38.90;;;;;;5092437;28;20243;-47
2022/07/07 02:16:44;;;;;;;1.95;1.33;;;19.00;38.80;;;;;;5092075;28;20540;-46
2022/07/07 02:19:10;;;;;;;2.90;1.93;;;19.10;39.00;;;;;;5092243;28;20195;-48
2022/07/07 02:21:36;;;;;;;2.20;1.60;;;19.10;38.90;;;;;;5092335;28;20184;-48
2022/07/07 02:24:03;;;;;;;3.38;1.83;;;19.10;39.60;;;;;;5092236;28;20394;-48
2022/07/07 02:26:32;;;;;;;2.03;1.13;;;19.10;38.50;;;;;;5092037;28;20551;-47
2022/07/07 02:28:58;;;;;;;2.00;1.55;;;19.20;38.70;;;;;;5092144;28;20219;-48
2022/07/07 02:31:24;;;;;;;2.20;1.80;;;19.20;38.30;;;;;;5092447;28;20531;-48
2022/07/07 02:33:50;;;;;;;1.83;1.20;;;19.20;38.50;;;;;;5092205;28;20164;-47
2022/07/07 02:36:16;;;;;;;2.00;1.13;;;19.20;38.30;;;;;;5091992;28;20168;-47
2022/07/07 02:38:41;;;;;;;2.13;1.50;;;19.30;38.20;;;;;;5092154;28;20191;-47
2022/07/07 02:41:07;;;;;;;3.63;1.50;;;19.20;38.10;;;;;;5092014;28;20430;-48
2022/07/07 02:43:34;;;;;;;2.83;1.10;;;19.30;38.20;;;;;;5094772;28;20179;-46
2022/07/07 02:46:00;;;;;;;5.90;2.20;;;19.30;38.00;;;;;;5095980;28;20405;-46
2022/07/07 02:48:26;;;;;;;4.63;1.60;;;19.30;38.20;;;;;;5096223;28;20191;-47
2022/07/07 02:50:52;;;;;;;2.22;1.55;;;19.30;38.10;;;;;;5096145;28;20463;-49
2022/07/07 02:53:20;;;;;;;1.80;1.17;;;19.30;38.20;;;;;;5096007;28;20200;-47
2022/07/07 02:55:46;;;;;;;2.40;1.35;;;19.30;37.80;;;;;;5095799;28;20160;-47
2022/07/07 02:58:15;;;;;;;1.80;1.10;;;19.30;37.70;;;;;;5095935;28;20709;-48
2022/07/07 03:00:40;;;;;;;2.55;1.25;;;19.30;37.90;;;;;;5095978;28;20163;-48
2022/07/07 03:03:11;;;;;;;2.20;0.90;;;19.30;38.10;;;;;;5096185;28;20345;-47
2022/07/07 03:05:37;;;;;;;2.03;1.27;;;19.30;37.90;;;;;;5095744;28;20622;-48
2022/07/07 03:08:03;;;;;;;2.92;1.55;;;19.40;38.00;;;;;;5095696;28;20204;-48
2022/07/07 03:10:29;;;;;;;1.85;1.02;;;19.40;38.00;;;;;;5095746;28;20725;-47
2022/07/07 03:12:55;;;;;;;2.60;1.50;;;19.40;37.80;;;;;;5095890;28;20211;-47
2022/07/07 03:15:21;;;;;;;2.73;1.20;;;19.50;38.00;;;;;;5095599;28;20398;-47
2022/07/07 03:17:49;;;;;;;1.93;1.27;;;19.50;38.00;;;;;;5095690;28;20168;-47
2022/07/07 03:20:16;;;;;;;3.35;1.45;;;19.50;37.80;;;;;;5095822;28;20475;-47
2022/07/07 03:22:42;;;;;;;2.47;1.30;;;19.50;37.20;;;;;;5095713;28;20179;-46
2022/07/07 03:25:09;;;;;;;2.63;1.70;;;19.50;36.70;;;;;;5095703;28;20175;-46
2022/07/07 03:27:35;;;;;;;4.38;1.77;;;19.50;36.40;;;;;;5095180;28;20180;-47
2022/07/07 03:30:03;;;;;;;2.03;1.30;;;19.40;36.50;;;;;;5095360;28;20172;-47
2022/07/07 03:32:29;;;;;;;1.80;1.20;;;19.40;36.30;;;;;;5095546;28;20203;-48
2022/07/07 03:34:55;;;;;;;1.67;0.83;;;19.40;36.60;;;;;;5095338;28;20160;-47
2022/07/07 03:37:20;;;;;;;3.17;1.27;;;19.40;36.60;;;;;;5095091;28;20402;-47
2022/07/07 03:39:46;;;;;;;2.40;1.30;;;19.40;36.80;;;;;;5095055;28;20688;-48
2022/07/07 03:42:12;;;;;;;3.10;1.30;;;19.50;37.30;;;;;;5095095;28;20191;-46
2022/07/07 03:44:38;;;;;;;2.97;1.50;;;19.50;37.10;;;;;;5095443;28;20183;-47
2022/07/07 03:47:04;;;;;;;1.80;1.10;;;19.40;37.10;;;;;;5095028;28;20730;-49
2022/07/07 03:49:30;;;;;;;2.30;1.67;;;19.50;37.40;;;;;;5094991;28;20257;-47
2022/07/07 03:51:57;;;;;;;2.73;1.50;;;19.50;37.80;;;;;;5094879;28;20867;-47
2022/07/07 03:54:23;;;;;;;1.90;1.10;;;19.50;38.30;;;;;;5093829;28;20402;-47
2022/07/07 03:56:49;;;;;;;2.13;1.48;;;19.50;37.90;;;;;;5094630;28;20164;-48
2022/07/07 03:59:15;;;;;;;2.45;1.30;;;19.50;38.00;;;;;;5094805;28;20267;-47
2022/07/07 04:01:47;;;;;;;2.73;1.90;;;19.50;38.30;;;;;;5094839;28;20309;-48
2022/07/07 04:04:14;;;;;;;3.45;1.40;;;19.50;38.50;;;;;;5094684;28;20439;-46
2022/07/07 04:06:41;;;;;;;2.50;1.23;;;19.40;38.60;;;;;;5094620;28;20260;-46
2022/07/07 04:09:07;;;;;;;2.88;1.45;;;19.40;38.70;;;;;;5094703;28;20199;-46
2022/07/07 04:11:32;;;;;;;2.53;1.73;;;19.30;39.10;;;;;;5094694;28;20172;-46
2022/07/07 04:13:58;;;;;;;4.23;1.40;;;19.30;38.90;;;;;;5094562;28;20178;-48
2022/07/07 04:16:24;;;;;;;3.23;1.40;;;19.30;39.10;;;;;;5094275;28;20214;-48
2022/07/07 04:18:50;;;;;;;2.60;1.33;;;19.30;39.50;;;;;;5094602;28;20418;-47
2022/07/07 04:21:15;;;;;;;1.80;1.20;;;19.30;39.70;;;;;;5094483;28;20485;-46
2022/07/07 04:23:42;;;;;;;2.60;1.60;;;19.30;39.40;;;;;;5094608;28;20635;-48
2022/07/07 04:26:08;;;;;;;6.63;1.90;;;19.30;39.80;;;;;;5094163;28;20190;-46
2022/07/07 04:28:34;;;;;;;2.57;1.27;;;19.30;39.90;;;;;;5094318;28;20706;-47
2022/07/07 04:31:00;;;;;;;2.40;1.40;;;19.20;41.00;;;;;;5094256;28;20437;-47
2022/07/07 04:33:25;;;;;;;4.23;1.80;;;19.20;40.20;;;;;;5094006;28;20192;-46
2022/07/07 04:35:52;;;;;;;3.45;1.77;;;19.20;40.80;;;;;;5094102;28;20278;-45
2022/07/07 04:38:18;;;;;;;2.53;1.60;;;19.10;40.70;;;;;;5094043;28;20611;-45
2022/07/07 04:40:44;;;;;;;2.30;1.40;;;19.10;41.00;;;;;;5094088;28;20164;-45
2022/07/07 04:43:09;;;;;;;4.27;1.80;;;19.10;41.10;;;;;;5094273;28;20175;-45
2022/07/07 04:45:35;;;;;;;2.53;1.20;;;19.10;41.30;;;;;;5093799;28;20176;-45
2022/07/07 04:48:01;;;;;;;2.23;1.40;;;19.00;41.40;;;;;;5093986;28;20674;-47
2022/07/07 04:50:27;;;;;;;4.43;1.47;;;19.00;41.60;;;;;;5093879;28;20763;-47
2022/07/07 04:52:53;;;;;;;3.20;1.30;;;18.90;41.10;;;;;;5093949;28;20211;-48
2022/07/07 04:55:19;;;;;;;2.07;1.53;;;18.90;41.60;;;;;;5093720;28;20459;-48
2022/07/07 04:57:45;;;;;;;2.67;1.40;;;18.80;41.80;;;;;;5093351;28;20406;-48
2022/07/07 05:00:11;;;;;;;4.70;1.60;;;18.90;42.30;;;;;;5093605;28;20437;-47
2022/07/07 05:02:37;;;;;;;2.17;1.10;;;18.90;42.60;;;;;;5093485;28;20406;-48
2022/07/07 05:05:03;;;;;;;2.43;1.47;;;19.00;43.00;;;;;;5093668;28;20194;-47
2022/07/07 05:07:29;;;;;;;2.33;1.55;;;19.00;42.90;;;;;;5092972;28;20202;-47
2022/07/07 05:09:55;;;;;;;2.53;1.73;;;19.10;43.00;;;;;;5093414;28;20721;-48
2022/07/07 05:12:21;;;;;;;2.50;1.60;;;19.10;42.80;;;;;;5093312;28;20203;-48
2022/07/07 05:14:48;;;;;;;3.07;2.27;;;19.10;42.60;;;;;;5093312;28;20172;-47
2022/07/07 05:17:14;;;;;;;2.53;1.80;;;19.00;42.20;;;;;;5093222;28;20180;-47
2022/07/07 05:19:40;;;;;;;3.50;2.20;;;19.00;42.30;;;;;;5093123;28;20188;-46
2022/07/07 05:22:06;;;;;;;1.80;1.20;;;19.00;42.70;;;;;;5093086;28;20639;-45
2022/07/07 05:24:32;;;;;;;2.20;1.33;;;18.90;41.90;;;;;;5093350;28;20191;-46
2022/07/07 05:26:57;;;;;;;1.90;1.50;;;18.90;42.30;;;;;;5092946;28;20663;-48
2022/07/07 05:29:23;;;;;;;5.57;1.60;;;18.90;42.80;;;;;;5092691;28;20667;-47
2022/07/07 05:31:49;;;;;;;3.27;1.33;;;19.00;42.90;;;;;;5092802;28;20280;-47
2022/07/07 05:34:15;;;;;;;2.30;1.77;;;18.90;43.30;;;;;;5093146;28;20730;-46
2022/07/07 05:36:40;;;;;;;2.17;1.50;;;19.00;43.30;;;;;;5092758;28;20180;-46
2022/07/07 05:39:06;;;;;;;4.73;1.50;;;19.10;43.30;;;;;;5093667;28;20666;-46
2022/07/07 05:41:32;;;;;;;4.37;1.87;;;19.10;43.00;;;;;;5093824;28;20168;-46
2022/07/07 05:43:58;;;;;;;3.77;2.00;;;19.10;43.20;;;;;;5093689;28;20406;-45
2022/07/07 05:46:23;;;;;;;3.73;2.00;;;19.10;43.30;;;;;;5093228;28;20191;-46
2022/07/07 05:48:49;;;;;;;3.30;1.77;;;19.10;43.60;;;;;;5093606;28;20184;-45
2022/07/07 05:51:15;;;;;;;3.90;2.37;;;19.00;43.50;;;;;;5093980;28;20172;-46
2022/07/07 05:53:41;;;;;;;2.83;2.43;;;19.10;43.30;;;;;;5093470;28;20191;-47
2022/07/07 05:56:07;;;;;;;3.45;2.05;;;19.10;43.40;;;;;;5092482;28;20305;-46
2022/07/07 05:58:33;;;;;;;2.80;2.05;;;19.00;43.00;;;;;;5092500;28;20203;-46
2022/07/07 06:00:58;;;;;;;3.67;1.60;;;19.00;43.50;;;;;;5092364;28;20176;-47
2022/07/07 06:03:25;;;;;;;4.43;1.87;;;19.00;43.30;;;;;;5092624;28;20176;-47
2022/07/07 06:05:51;;;;;;;2.90;2.08;;;19.00;43.00;;;;;;5092397;28;20186;-48
2022/07/07 06:08:18;;;;;;;2.23;1.60;;;19.00;43.30;;;;;;5092716;28;20195;-47
2022/07/07 06:10:44;;;;;;;4.97;1.83;;;19.00;42.90;;;;;;5092587;28;20187;-47
2022/07/07 06:13:09;;;;;;;2.33;1.53;;;19.00;43.40;;;;;;5092529;28;20200;-46
2022/07/07 06:15:35;;;;;;;2.77;1.80;;;19.00;42.90;;;;;;5092401;28;20459;-45
2022/07/07 06:18:04;;;;;;;2.97;1.60;;;19.00;42.90;;;;;;5091682;28;20563;-47
2022/07/07 06:20:30;;;;;;;3.25;1.42;;;19.00;43.20;;;;;;5092308;28;20426;-46
2022/07/07 06:22:57;;;;;;;3.10;1.42;;;19.00;43.30;;;;;;5092328;28;20183;-47
2022/07/07 06:25:23;;;;;;;2.80;1.70;;;19.00;43.00;;;;;;5092180;28;20176;-47
2022/07/07 06:27:49;;;;;;;2.60;1.85;;;19.10;43.20;;;;;;5091922;28;20188;-47
2022/07/07 06:30:15;;;;;;;2.50;1.35;;;19.10;43.20;;;;;;5092225;28;20161;-47
2022/07/07 06:32:41;;;;;;;2.60;1.90;;;19.20;43.40;;;;;;5092076;28;20222;-47
2022/07/07 06:35:07;;;;;;;3.13;1.87;;;19.30;43.60;;;;;;5092420;28;20160;-48
2022/07/07 06:37:33;;;;;;;3.17;1.83;;;19.40;43.80;;;;;;5091884;28;20175;-47
2022/07/07 06:39:59;;;;;;;1.90;1.23;;;19.50;43.90;;;;;;5092199;28;20179;-47
2022/07/07 06:42:25;;;;;;;3.20;2.07;;;19.50;43.50;;;;;;5092094;28;20562;-47
2022/07/07 06:44:50;;;;;;;2.80;1.43;;;19.50;43.30;;;;;;5090720;28;20414;-46
2022/07/07 06:47:16;;;;;;;3.40;1.33;;;19.50;43.20;;;;;;5091856;28;20174;-47
2022/07/07 06:49:42;;;;;;;2.00;1.40;;;19.50;43.40;;;;;;5090583;28;20645;-46
2022/07/07 06:52:08;;;;;;;2.17;1.50;;;19.60;43.40;;;;;;5091996;28;20290;-46
2022/07/07 06:54:34;;;;;;;3.40;2.10;;;19.60;43.10;;;;;;5090696;28;20617;-45
2022/07/07 06:57:00;;;;;;;3.23;1.60;;;19.60;43.30;;;;;;5091710;28;20175;-46
2022/07/07 06:59:26;;;;;;;3.17;1.83;;;19.60;43.20;;;;;;5099010;22;21094;-47
2022/07/07 07:01:51;;;;;;;1.97;1.57;;;19.70;44.70;;;;;;5071583;28;20172;-47
2022/07/07 07:04:17;;;;;;;3.20;1.73;;;19.70;43.60;;;;;;5071681;28;20192;-47
2022/07/07 07:06:44;;;;;;;2.40;1.77;;;19.80;43.70;;;;;;5071431;28;20179;-48
2022/07/07 07:09:10;;;;;;;3.10;2.00;;;19.90;44.00;;;;;;5076808;28;20196;-48
2022/07/07 07:11:37;;;;;;;3.38;2.05;;;19.90;44.00;;;;;;5091800;28;20168;-46
2022/07/07 07:14:03;;;;;;;2.85;1.50;;;20.00;44.10;;;;;;5091803;28;20207;-47
2022/07/07 07:16:30;;;;;;;2.85;2.22;;;20.10;44.00;;;;;;5091499;28;20180;-48
2022/07/07 07:18:56;;;;;;;2.13;1.40;;;20.10;44.10;;;;;;5091618;28;20180;-48
2022/07/07 07:21:21;;;;;;;2.00;1.70;;;20.00;43.10;;;;;;5091955;28;20182;-48
2022/07/07 07:23:47;;;;;;;3.03;1.73;;;20.00;44.60;;;;;;5091610;28;20449;-47
2022/07/07 07:26:13;;;;;;;4.40;2.23;;;20.00;44.30;;;;;;5091431;28;20168;-47
2022/07/07 07:28:39;;;;;;;2.17;1.88;;;20.00;44.00;;;;;;5091611;28;20618;-48
2022/07/07 07:31:05;;;;;;;3.30;1.20;;;19.90;44.10;;;;;;5094639;28;20286;-47
2022/07/07 07:33:32;;;;;;;3.47;1.90;;;20.00;44.10;;;;;;5095562;28;20203;-47
2022/07/07 07:35:58;;;;;;;3.08;2.08;;;19.90;44.30;;;;;;5095020;28;20179;-46
2022/07/07 07:38:24;;;;;;;2.33;1.85;;;19.90;44.80;;;;;;5095188;28;20164;-47
2022/07/07 07:40:50;;;;;;;3.15;2.10;;;19.90;44.90;;;;;;5095112;28;20279;-47
2022/07/07 07:43:16;;;;;;;3.70;2.00;;;20.00;44.80;;;;;;5095321;28;20259;-46
2022/07/07 07:45:42;;;;;;;2.43;1.40;;;19.90;45.20;;;;;;5094838;28;20211;-47
2022/07/07 07:48:08;;;;;;;2.58;2.05;;;20.00;45.70;;;;;;5095021;28;20168;-47
2022/07/07 07:50:34;;;;;;;3.03;1.77;;;20.00;45.00;;;;;;5094988;28;20269;-47
2022/07/07 07:53:04;;;;;;;2.33;1.52;;;20.00;45.10;;;;;;5094909;28;20827;-47
2022/07/07 07:55:31;;;;;;;2.40;1.60;;;20.00;44.50;;;;;;5095052;28;20180;-47
2022/07/07 07:57:57;;;;;;;2.83;1.85;;;20.00;44.40;;;;;;5094762;28;20169;-47
2022/07/07 08:00:23;;;;;;;4.07;2.17;;;20.00;45.00;;;;;;5094750;28;20207;-47
2022/07/07 08:02:49;;;;;;;4.07;1.95;;;20.00;45.80;;;;;;5095130;28;20202;-47
2022/07/07 08:05:16;;;;;;;3.45;2.55;;;20.00;45.70;;;;;;5094952;28;20622;-47
2022/07/07 08:07:44;;;;;;;2.72;1.92;;;20.10;45.70;;;;;;5094513;28;20202;-47
2022/07/07 08:10:12;;;;;;;13.02;2.47;;;20.10;46.10;;;;;;5094725;28;20223;-46
2022/07/07 08:12:38;;;;;;;2.25;1.90;;;20.10;45.90;;;;;;5094588;28;20188;-47
2022/07/07 08:15:05;;;;;;;2.33;1.73;;;20.00;45.70;;;;;;5094831;28;20180;-46
2022/07/07 08:17:31;;;;;;;3.47;1.73;;;20.00;45.80;;;;;;5094233;28;20168;-46
2022/07/07 08:19:56;;;;;;;3.50;2.93;;;20.00;46.50;;;;;;5094287;28;20196;-45
2022/07/07 08:22:22;;;;;;;3.47;2.57;;;20.00;46.50;;;;;;5094348;28;20176;-47
2022/07/07 08:24:48;;;;;;;2.40;2.00;;;20.00;46.60;;;;;;5094323;28;20184;-46
2022/07/07 08:27:14;;;;;;;4.10;2.20;;;20.10;46.70;;;;;;5094120;28;20410;-47
2022/07/07 08:29:41;;;;;;;5.70;2.72;;;20.10;46.60;;;;;;5094241;28;20204;-47
2022/07/07 08:32:10;;;;;;;4.15;3.17;;;20.10;46.80;;;;;;5094150;28;20234;-47
2022/07/07 08:34:37;;;;;;;3.13;2.83;;;20.10;46.90;;;;;;5094185;28;20699;-47
2022/07/07 08:37:03;;;;;;;3.83;2.35;;;20.10;46.90;;;;;;5093883;28;20168;-47
2022/07/07 08:39:29;;;;;;;3.92;2.83;;;20.10;46.70;;;;;;5094002;28;20184;-47
2022/07/07 08:41:55;;;;;;;4.50;2.70;;;20.20;46.80;;;;;;5093519;28;20588;-47
2022/07/07 08:44:21;;;;;;;4.80;2.43;;;20.20;46.60;;;;;;5094173;28;20258;-46
2022/07/07 08:46:47;;;;;;;3.92;2.78;;;20.20;46.60;;;;;;5093703;28;20402;-46
2022/07/07 08:49:13;;;;;;;3.13;2.57;;;20.20;47.30;;;;;;5093703;28;20198;-46
2022/07/07 08:51:43;;;;;;;3.22;2.47;;;20.20;46.70;;;;;;5093716;28;20922;-47
2022/07/07 08:54:11;;;;;;;3.00;2.65;;;20.20;46.90;;;;;;5093877;28;20176;-47
2022/07/07 08:56:40;;;;;;;7.20;3.03;;;20.20;46.90;;;;;;5093641;28;20548;-47
2022/07/07 08:59:07;;;;;;;4.00;2.90;;;20.20;46.90;;;;;;5093592;28;20220;-47
2022/07/07 09:01:34;;;;;;;3.05;2.70;;;20.20;47.10;;;;;;5093575;28;20192;-47
2022/07/07 09:04:01;;;;;;;4.03;3.03;;;20.20;47.10;;;;;;5093845;28;20361;-46
2022/07/07 09:06:27;;;;;;;3.88;2.80;;;20.30;47.00;;;;;;5093465;28;20180;-47
2022/07/07 09:08:53;;;;;;;3.00;2.70;;;20.30;47.20;;;;;;5093549;28;20199;-47
2022/07/07 09:11:27;;;;;;;3.67;3.08;;;20.30;47.20;;;;;;5093558;28;20537;-47
2022/07/07 09:14:08;;;;;;;7.60;3.83;;;20.30;47.30;;;;;;5093358;28;20191;-46
2022/07/07 09:16:36;;;;;;;3.17;2.88;;;20.40;47.30;;;;;;5093226;28;20195;-47
2022/07/07 09:19:03;;;;;;;3.80;3.40;;;20.40;47.70;;;;;;5093197;28;20252;-46
2022/07/07 09:21:31;;;;;;;4.07;3.33;;;20.50;47.50;;;;;;5093271;28;20172;-46
2022/07/07 09:24:07;;;;;;;3.60;3.28;;;20.40;48.10;;;;;;5093244;28;20836;-47
2022/07/07 09:26:41;;;;;;;4.55;3.25;;;20.40;47.70;;;;;;5092991;28;20176;-47
2022/07/07 09:29:13;;;;;;;3.95;3.55;;;20.50;47.70;;;;;;5093204;28;20191;-46
2022/07/07 09:31:52;;;;;;;5.90;4.00;;;20.50;47.60;;;;;;5093020;28;20663;-47
2022/07/07 09:34:19;;;;;;;4.90;3.95;;;20.60;47.30;;;;;;5093073;28;20167;-47
2022/07/07 09:39:46;;;;;;;5.32;4.43;;;20.50;47.70;;;;;;5093110;28;20206;-48
2022/07/07 09:42:20;;;;;;;4.85;4.13;;;20.60;47.10;;;;;;5092881;28;20210;-47
2022/07/07 09:44:52;;;;;;;6.82;4.72;;;20.50;47.50;;;;;;5092939;28;20647;-47
2022/07/07 09:47:22;;;;;;;5.78;4.78;;;20.60;47.70;;;;;;5092627;28;20662;-46
2022/07/07 09:50:06;;;;;;;5.15;4.55;;;20.60;47.60;;;;;;5092854;28;20214;-47
2022/07/07 09:52:37;;;;;;;4.40;4.00;;;20.60;48.00;;;;;;5092145;28;20215;-46
2022/07/07 09:55:05;;;;;;;4.40;4.00;;;20.60;48.20;;;;;;5092699;28;20175;-47
2022/07/07 09:57:30;;;;;;;5.30;4.03;;;20.50;47.40;;;;;;5092457;28;20167;-47
2022/07/07 09:59:56;;;;;;;4.77;3.60;;;20.60;47.70;;;;;;5092308;28;20203;-46
2022/07/07 10:02:25;;;;;;;5.70;4.20;;;20.60;47.40;;;;;;5092470;28;20436;-47
2022/07/07 10:04:58;;;;;;;7.05;4.07;;;19.60;47.00;;;;;;5092583;28;20168;-47
2022/07/07 10:07:29;;;;;;;4.80;3.80;;;20.60;48.00;;;;;;5092246;28;20195;-46
2022/07/07 10:09:58;;;;;;;4.95;3.72;;;20.60;47.70;;;;;;5092652;28;20533;-47
2022/07/07 10:12:26;;;;;;;3.60;3.17;;;20.50;48.20;;;;;;5092285;28;20230;-47
2022/07/07 10:15:11;;;;;;;3.40;3.10;;;20.50;48.30;;;;;;5092386;28;20206;-47
2022/07/07 10:17:38;;;;;;;4.55;3.83;;;20.50;48.60;;;;;;5092410;28;20195;-46
2022/07/07 10:20:08;;;;;;;5.53;3.85;;;20.50;49.00;;;;;;5092241;28;20658;-47
2022/07/07 10:22:35;;;;;;;3.90;3.50;;;20.50;49.60;;;;;;5092562;28;20187;-47
2022/07/07 10:25:05;;;;;;;4.85;3.97;;;20.50;49.70;;;;;;5092170;28;20164;-47
2022/07/07 10:27:31;;;;;;;3.85;3.22;;;20.50;49.60;;;;;;5092068;28;20179;-47
2022/07/07 10:29:58;;;;;;;3.40;3.10;;;20.50;49.70;;;;;;5092038;28;20200;-47
2022/07/07 10:32:37;;;;;;;3.13;2.83;;;20.50;49.30;;;;;;5092094;28;20199;-47
2022/07/07 10:35:17;;;;;;;4.53;3.13;;;20.50;49.30;;;;;;5092458;28;20229;-47
2022/07/07 10:37:48;;;;;;;4.00;3.10;;;20.50;49.50;;;;;;5091951;28;20658;-46
2022/07/07 10:40:20;;;;;;;3.40;2.88;;;20.60;49.50;;;;;;5092020;28;20551;-47
2022/07/07 10:43:04;;;;;;;4.03;3.30;;;20.60;49.30;;;;;;5092435;28;20511;-47
2022/07/07 10:45:31;;;;;;;3.20;2.90;;;20.70;50.00;;;;;;5091977;28;20251;-47
2022/07/07 10:47:57;;;;;;;2.95;2.22;;;20.70;49.90;;;;;;5092084;28;20174;-46
2022/07/07 10:50:25;;;;;;;2.90;2.30;;;20.60;49.30;;;;;;5091996;28;20188;-45
2022/07/07 10:52:51;;;;;;;3.03;2.50;;;20.60;49.00;;;;;;5090673;28;20546;-47
2022/07/07 10:55:17;;;;;;;2.75;2.10;;;20.60;49.10;;;;;;5091952;28;20196;-47
2022/07/07 10:57:48;;;;;;;5.43;2.83;;;20.50;48.90;;;;;;5091817;28;20245;-46
2022/07/07 11:00:19;;;;;;;3.80;2.80;;;20.60;49.30;;;;;;5091673;28;20206;-47
2022/07/07 11:03:07;;;;;;;4.85;3.25;;;20.60;49.40;;;;;;5091932;28;20260;-47
2022/07/07 11:05:35;;;;;;;2.72;2.40;;;20.60;50.20;;;;;;5095806;28;20654;-47
2022/07/07 11:08:06;;;;;;;3.70;2.35;;;20.50;49.50;;;;;;5096109;28;20186;-46
2022/07/07 11:10:44;;;;;;;4.20;3.05;;;20.50;49.80;;;;;;5095743;28;20191;-47
2022/07/07 11:13:31;;;;;;;3.75;3.28;;;20.50;49.90;;;;;;5095734;28;20675;-47
2022/07/07 11:16:06;;;;;;;5.20;2.97;;;20.60;49.70;;;;;;5095596;28;20213;-47
2022/07/07 11:18:34;;;;;;;3.65;2.90;;;20.60;51.10;;;;;;5095657;28;20713;-47
2022/07/07 11:21:03;;;;;;;3.88;3.30;;;20.60;50.80;;;;;;5095551;28;20250;-47
2022/07/07 11:23:51;;;;;;;3.80;3.25;;;20.60;50.00;;;;;;5095595;28;20196;-47
2022/07/07 11:26:23;;;;;;;3.75;3.33;;;20.60;50.30;;;;;;5095335;28;20641;-48
2022/07/07 11:28:50;;;;;;;4.45;4.03;;;20.70;51.30;;;;;;5095427;28;20149;-48
2022/07/07 11:31:16;;;;;;;4.63;3.80;;;20.60;50.30;;;;;;5095347;28;20180;-47
2022/07/07 11:33:52;;;;;;;4.07;3.67;;;20.60;50.30;;;;;;5093964;28;20198;-48
2022/07/07 11:36:23;;;;;;;4.20;3.70;;;20.70;50.30;;;;;;5095215;28;20885;-48
2022/07/07 11:39:00;;;;;;;4.10;3.25;;;20.70;50.20;;;;;;5095161;28;20781;-48
2022/07/07 11:41:43;;;;;;;3.95;3.55;;;20.80;50.00;;;;;;5095265;28;20159;-47
2022/07/07 11:44:20;;;;;;;3.58;3.00;;;20.80;50.00;;;;;;5095005;28;20164;-48
2022/07/07 11:46:51;;;;;;;3.90;2.73;;;20.90;50.20;;;;;;5095117;28;20187;-47
2022/07/07 11:49:17;;;;;;;4.05;3.65;;;20.90;49.80;;;;;;5094950;28;20508;-48
2022/07/07 11:51:47;;;;;;;4.20;3.80;;;21.00;50.30;;;;;;5094979;28;20248;-49
2022/07/07 11:54:13;;;;;;;3.40;2.97;;;21.10;49.90;;;;;;5095072;28;20254;-49
2022/07/07 11:56:39;;;;;;;3.90;3.50;;;21.10;49.10;;;;;;5094586;28;20168;-48
2022/07/07 11:59:07;;;;;;;4.45;2.97;;;21.10;50.00;;;;;;5094642;28;20286;-48
2022/07/07 12:01:38;;;;;;;3.75;3.13;;;21.10;49.40;;;;;;5094810;28;20166;-49
2022/07/07 12:04:21;;;;;;;3.30;2.75;;;21.20;49.10;;;;;;5094858;28;20179;-48
2022/07/07 12:06:47;;;;;;;3.67;2.97;;;21.30;49.50;;;;;;5094389;28;20179;-48
2022/07/07 12:09:14;;;;;;;4.20;3.80;;;21.50;49.90;;;;;;5094534;28;20421;-47
2022/07/07 12:11:43;;;;;;;3.23;2.90;;;21.60;49.80;;;;;;5094927;28;20187;-47
2022/07/07 12:14:11;;;;;;;3.97;3.15;;;21.60;49.40;;;;;;5094562;28;20686;-47
2022/07/07 12:16:54;;;;;;;3.08;2.78;;;21.70;49.00;;;;;;5093465;28;20255;-48
2022/07/07 12:19:22;;;;;;;2.70;2.30;;;21.70;49.00;;;;;;5094428;28;20179;-47
2022/07/07 12:21:49;;;;;;;4.10;3.33;;;21.70;49.00;;;;;;5094362;28;20406;-48
2022/07/07 12:24:23;;;;;;;2.72;2.40;;;21.80;48.60;;;;;;5094766;28;20394;-48
2022/07/07 12:26:51;;;;;;;3.25;2.85;;;21.90;48.40;;;;;;5094344;28;20236;-49
2022/07/07 12:29:21;;;;;;;3.23;2.80;;;21.90;48.40;;;;;;5094229;28;20187;-49
2022/07/07 12:31:48;;;;;;;3.10;2.75;;;21.90;48.60;;;;;;5094555;28;20374;-49
2022/07/07 12:34:24;;;;;;;3.40;3.10;;;22.00;49.00;;;;;;5094109;28;20176;-50
2022/07/07 12:36:50;;;;;;;3.80;2.28;;;22.00;48.20;;;;;;5094191;28;20465;-48
2022/07/07 12:39:17;;;;;;;3.27;2.97;;;22.00;48.30;;;;;;5094008;28;20266;-47
2022/07/07 12:41:43;;;;;;;3.28;2.97;;;21.90;48.50;;;;;;5094056;28;20179;-48
2022/07/07 12:44:21;;;;;;;3.10;2.80;;;22.00;48.40;;;;;;5094044;28;20175;-49
2022/07/07 12:46:48;;;;;;;3.50;3.00;;;22.00;48.20;;;;;;5093878;28;20234;-49
2022/07/07 12:49:14;;;;;;;3.03;2.73;;;22.00;48.30;;;;;;5093882;28;20441;-48
2022/07/07 12:51:42;;;;;;;3.60;2.95;;;22.00;48.20;;;;;;5093851;28;20870;-48
2022/07/07 12:54:20;;;;;;;3.63;3.30;;;22.00;48.40;;;;;;5093756;28;20199;-48
2022/07/07 12:56:46;;;;;;;3.07;2.77;;;22.00;48.00;;;;;;5093698;28;20254;-48